createdAt,value
2022-11-05T00:00:37.668Z,8.89
2022-11-05T00:03:27.033Z,8.92
2022-11-05T00:06:14.406Z,8.95
2022-11-05T00:09:04.469Z,8.99
2022-11-05T00:11:51.756Z,9.02
2022-11-05T00:14:43.089Z,9.13
2022-11-05T00:17:13.429Z,9.24
2022-11-05T00:19:45.026Z,9.37
2022-11-05T00:22:32.809Z,9.43
2022-11-05T00:25:19.711Z,9.53
2022-11-05T00:27:51.452Z,9.59
2022-11-05T00:30:25.167Z,9.63
2022-11-05T00:32:53.515Z,9.67
2022-11-05T00:35:22.452Z,9.62
2022-11-05T00:37:50.795Z,9.60
2022-11-05T00:40:18.601Z,9.58
2022-11-05T00:43:05.001Z,9.58
2022-11-05T00:45:32.909Z,9.56
2022-11-05T00:48:19.211Z,9.51
2022-11-05T00:50:46.911Z,9.47
2022-11-05T00:53:14.771Z,9.41
2022-11-05T00:55:45.409Z,9.39
2022-11-05T00:58:17.292Z,9.38
2022-11-05T01:00:51.745Z,9.34
2022-11-05T01:03:23.480Z,9.30
2022-11-05T01:05:54.800Z,9.30
2022-11-05T01:08:25.463Z,9.27
2022-11-05T01:10:56.226Z,9.24
2022-11-05T01:13:27.882Z,9.22
2022-11-05T01:15:56.822Z,9.22
2022-11-05T01:18:24.736Z,9.20
2022-11-05T01:20:52.584Z,9.19
2022-11-05T01:23:20.780Z,9.17
2022-11-05T01:25:48.876Z,9.16
2022-11-05T01:28:16.371Z,9.15
2022-11-05T01:30:44.227Z,9.15
2022-11-05T01:33:12.156Z,9.18
2022-11-05T01:35:39.972Z,9.21
2022-11-05T01:38:07.461Z,9.25
2022-11-05T01:40:35.259Z,9.29
2022-11-05T01:43:02.770Z,9.37
2022-11-05T01:45:30.854Z,9.42
2022-11-05T01:48:17.028Z,9.49
2022-11-05T01:50:56.486Z,9.53
2022-11-05T01:53:53.843Z,9.55
2022-11-05T01:56:26.888Z,9.58
2022-11-05T01:59:00.900Z,9.63
2022-11-05T02:01:29.168Z,9.65
2022-11-05T02:04:01.826Z,9.64
2022-11-05T02:06:32.626Z,9.62
2022-11-05T02:09:07.338Z,9.60
2022-11-05T02:11:34.976Z,9.56
2022-11-05T02:14:02.727Z,9.54
2022-11-05T02:16:53.922Z,9.49
2022-11-05T02:20:01.591Z,9.46
2022-11-05T02:23:21.644Z,9.42
2022-11-05T02:26:19.178Z,9.37
2022-11-05T02:29:18.670Z,9.34
2022-11-05T02:32:35.729Z,9.35
2022-11-05T02:35:20.749Z,9.30
2022-11-05T02:37:57.445Z,9.28
2022-11-05T02:40:55.425Z,9.27
2022-11-05T02:43:52.706Z,9.27
2022-11-05T02:46:47.031Z,9.23
2022-11-05T02:49:49.415Z,9.22
2022-11-05T02:52:28.382Z,9.19
2022-11-05T02:55:13.420Z,9.18
2022-11-05T02:57:47.410Z,9.18
2022-11-05T03:00:52.477Z,9.18
2022-11-05T03:03:34.595Z,9.20
2022-11-05T03:06:25.506Z,9.24
2022-11-05T03:09:36.895Z,9.28
2022-11-05T03:12:28.190Z,9.37
2022-11-05T03:15:22.801Z,9.46
2022-11-05T03:17:56.008Z,9.50
2022-11-05T03:20:50.751Z,9.58
2022-11-05T03:23:29.276Z,9.61
2022-11-05T03:26:08.424Z,9.64
2022-11-05T03:28:40.437Z,9.66
2022-11-05T03:31:10.462Z,9.66
2022-11-05T03:33:40.095Z,9.63
2022-11-05T03:36:15.196Z,9.62
2022-11-05T03:38:47.366Z,9.56
2022-11-05T03:41:16.117Z,9.52
2022-11-05T03:43:48.481Z,9.45
2022-11-05T03:46:30.233Z,9.41
2022-11-05T03:49:01.670Z,9.38
2022-11-05T03:51:46.728Z,9.33
2022-11-05T03:54:15.302Z,9.28
2022-11-05T03:57:18.939Z,9.21
2022-11-05T03:59:49.177Z,9.17
2022-11-05T04:02:22.069Z,9.12
2022-11-05T04:04:50.431Z,9.07
2022-11-05T04:07:37.134Z,9.04
2022-11-05T04:10:24.412Z,9.02
2022-11-05T04:13:11.153Z,8.98
2022-11-05T04:15:57.747Z,8.92
2022-11-05T04:18:25.331Z,8.88
2022-11-05T04:21:11.864Z,8.84
2022-11-05T04:23:57.768Z,8.82
2022-11-05T04:26:25.418Z,8.81
2022-11-05T04:29:11.861Z,8.81
2022-11-05T04:31:39.595Z,8.78
2022-11-05T04:34:07.386Z,8.74
2022-11-05T04:36:35.004Z,8.77
2022-11-05T04:39:02.569Z,8.80
2022-11-05T04:41:30.106Z,8.79
2022-11-05T04:43:57.811Z,8.80
2022-11-05T04:46:27.942Z,8.84
2022-11-05T04:48:55.472Z,8.89
2022-11-05T04:51:23.088Z,8.93
2022-11-05T04:53:50.712Z,9.01
2022-11-05T04:56:23.986Z,9.03
2022-11-05T04:58:52.109Z,9.06
2022-11-05T05:01:23.384Z,9.08
2022-11-05T05:03:53.513Z,9.10
2022-11-05T05:06:21.983Z,9.10
2022-11-05T05:08:51.529Z,9.10
2022-11-05T05:11:21.614Z,9.08
2022-11-05T05:13:50.184Z,9.05
2022-11-05T05:16:24.632Z,9.00
2022-11-05T05:18:53.479Z,8.98
2022-11-05T05:21:38.280Z,8.93
2022-11-05T05:24:12.336Z,8.88
2022-11-05T05:26:46.077Z,8.85
2022-11-05T05:29:14.912Z,8.83
2022-11-05T05:31:43.289Z,8.80
2022-11-05T05:34:13.601Z,8.78
2022-11-05T05:36:41.651Z,8.78
2022-11-05T05:39:10.374Z,8.76
2022-11-05T05:41:39.679Z,8.75
2022-11-05T05:44:07.805Z,8.74
2022-11-05T05:46:35.254Z,8.72
2022-11-05T05:49:06.702Z,8.73
2022-11-05T05:51:32.628Z,8.72
2022-11-05T05:54:00.116Z,8.72
2022-11-05T05:56:27.650Z,8.71
2022-11-05T05:58:55.225Z,8.74
2022-11-05T06:01:23.187Z,8.78
2022-11-05T06:03:50.645Z,8.85
2022-11-05T06:06:19.439Z,8.93
2022-11-05T06:08:48.990Z,9.01
2022-11-05T06:11:16.733Z,9.07
2022-11-05T06:13:44.230Z,9.18
2022-11-05T06:16:12.118Z,9.27
2022-11-05T06:18:40.022Z,9.37
2022-11-05T06:21:11.517Z,9.46
2022-11-05T06:23:41.709Z,9.52
2022-11-05T06:26:13.292Z,9.56
2022-11-05T06:28:41.664Z,9.61
2022-11-05T06:31:11.067Z,9.64
2022-11-05T06:33:39.778Z,9.65
2022-11-05T06:36:08.825Z,9.66
2022-11-05T06:38:36.999Z,9.66
2022-11-05T06:41:10.335Z,9.65
2022-11-05T06:43:36.253Z,9.66
2022-11-05T06:46:03.913Z,9.67
2022-11-05T06:48:31.559Z,9.68
2022-11-05T06:50:59.214Z,9.70
2022-11-05T06:53:27.703Z,9.71
2022-11-05T06:55:55.489Z,9.72
2022-11-05T06:58:23.215Z,9.74
2022-11-05T07:00:51.040Z,9.75
2022-11-05T07:03:18.524Z,9.76
2022-11-05T07:05:48.531Z,9.77
2022-11-05T07:08:16.331Z,9.79
2022-11-05T07:10:43.886Z,9.85
2022-11-05T07:13:12.128Z,9.87
2022-11-05T07:15:39.977Z,9.90
2022-11-05T07:18:07.686Z,9.95
2022-11-05T07:20:35.688Z,9.99
2022-11-05T07:23:11.840Z,10.05
2022-11-05T07:25:41.326Z,10.13
2022-11-05T07:28:10.511Z,10.24
2022-11-05T07:30:38.408Z,10.33
2022-11-05T07:33:05.844Z,10.45
2022-11-05T07:35:34.192Z,10.54
2022-11-05T07:38:01.931Z,10.64
2022-11-05T07:40:30.166Z,10.74
2022-11-05T07:43:00.429Z,10.83
2022-11-05T07:45:30.722Z,10.90
2022-11-05T07:48:03.634Z,10.97
2022-11-05T07:50:35.282Z,11.02
2022-11-05T07:53:06.252Z,11.05
2022-11-05T07:55:34.363Z,11.06
2022-11-05T07:58:02.373Z,11.09
2022-11-05T08:00:30.236Z,11.10
2022-11-05T08:03:08.269Z,11.10
2022-11-05T08:05:37.470Z,11.13
2022-11-05T08:08:07.969Z,11.17
2022-11-05T08:10:37.475Z,11.20
2022-11-05T08:13:06.873Z,11.24
2022-11-05T08:15:35.549Z,11.27
2022-11-05T08:18:07.251Z,11.28
2022-11-05T08:20:36.569Z,11.33
2022-11-05T08:23:04.529Z,11.37
2022-11-05T08:25:32.100Z,11.43
2022-11-05T08:28:07.132Z,11.49
2022-11-05T08:30:35.197Z,11.53
2022-11-05T08:33:07.448Z,11.58
2022-11-05T08:35:36.806Z,11.62
2022-11-05T08:38:07.224Z,11.65
2022-11-05T08:40:36.473Z,11.70
2022-11-05T08:43:07.073Z,11.75
2022-11-05T08:45:39.027Z,11.78
2022-11-05T08:48:10.906Z,11.82
2022-11-05T08:50:39.009Z,11.86
2022-11-05T08:53:08.370Z,11.90
2022-11-05T08:55:37.929Z,11.94
2022-11-05T08:58:17.453Z,12.00
2022-11-05T09:00:48.751Z,12.04
2022-11-05T09:03:17.628Z,12.10
2022-11-05T09:05:45.381Z,12.17
2022-11-05T09:08:17.017Z,12.21
2022-11-05T09:10:46.908Z,12.31
2022-11-05T09:13:18.666Z,12.40
2022-11-05T09:15:44.269Z,12.49
2022-11-05T09:18:13.836Z,12.59
2022-11-05T09:20:41.873Z,12.68
2022-11-05T09:23:11.755Z,12.76
2022-11-05T09:25:39.456Z,12.85
2022-11-05T09:28:17.622Z,12.94
2022-11-05T09:30:49.440Z,12.99
2022-11-05T09:33:21.362Z,13.05
2022-11-05T09:35:49.423Z,13.07
2022-11-05T09:38:17.904Z,13.10
2022-11-05T09:41:02.381Z,13.10
2022-11-05T09:43:38.256Z,13.11
2022-11-05T09:46:24.944Z,13.12
2022-11-05T09:49:02.804Z,13.12
2022-11-05T09:51:31.735Z,13.12
2022-11-05T09:54:00.518Z,13.12
2022-11-05T09:56:32.274Z,13.11
2022-11-05T09:59:25.402Z,13.10
2022-11-05T10:02:03.184Z,13.09
2022-11-05T10:04:34.137Z,13.07
2022-11-05T10:07:05.612Z,13.07
2022-11-05T10:09:37.969Z,13.07
2022-11-05T10:12:32.249Z,13.09
2022-11-05T10:15:14.408Z,13.09
2022-11-05T10:17:49.097Z,13.12
2022-11-05T10:20:28.048Z,13.13
2022-11-05T10:23:00.714Z,13.16
2022-11-05T10:25:32.734Z,13.19
2022-11-05T10:28:00.547Z,13.22
2022-11-05T10:30:28.211Z,13.25
2022-11-05T10:33:00.082Z,13.28
2022-11-05T10:35:31.398Z,13.32
2022-11-05T10:37:59.073Z,13.36
2022-11-05T10:40:31.953Z,13.39
2022-11-05T10:43:26.310Z,13.43
2022-11-05T10:46:28.527Z,13.48
2022-11-05T10:49:36.680Z,13.52
2022-11-05T10:52:24.413Z,13.54
2022-11-05T10:54:56.350Z,13.56
2022-11-05T10:57:38.037Z,13.59
2022-11-05T11:00:21.674Z,13.60
2022-11-05T11:03:02.819Z,13.64
2022-11-05T11:05:39.340Z,13.67
2022-11-05T11:08:12.269Z,13.71
2022-11-05T11:10:50.738Z,13.73
2022-11-05T11:13:28.247Z,13.77
2022-11-05T11:16:16.037Z,13.81
2022-11-05T11:18:43.859Z,13.84
2022-11-05T11:21:19.250Z,13.88
2022-11-05T11:24:09.094Z,13.93
2022-11-05T11:26:40.264Z,13.95
2022-11-05T11:29:25.339Z,14.00
2022-11-05T11:31:58.783Z,14.06
2022-11-05T11:34:35.830Z,14.14
2022-11-05T11:37:19.525Z,14.21
2022-11-05T11:39:51.252Z,14.31
2022-11-05T11:42:30.669Z,14.43
2022-11-05T11:45:03.189Z,14.52
2022-11-05T11:47:32.385Z,14.63
2022-11-05T11:50:02.164Z,14.73
2022-11-05T11:52:36.296Z,14.82
2022-11-05T11:55:20.629Z,14.91
2022-11-05T11:57:57.235Z,14.98
2022-11-05T12:00:26.453Z,15.05
2022-11-05T12:03:18.167Z,15.09
2022-11-05T12:05:57.797Z,15.11
2022-11-05T12:08:44.980Z,15.15
2022-11-05T12:11:14.861Z,15.18
2022-11-05T12:14:01.542Z,15.20
2022-11-05T12:16:54.619Z,15.21
2022-11-05T12:19:42.669Z,15.22
2022-11-05T12:22:15.513Z,15.21
2022-11-05T12:24:54.150Z,15.22
2022-11-05T12:27:48.501Z,15.21
2022-11-05T12:30:20.165Z,15.21
2022-11-05T12:33:17.664Z,15.22
2022-11-05T12:36:01.599Z,15.23
2022-11-05T12:38:52.368Z,15.23
2022-11-05T12:41:40.175Z,15.22
2022-11-05T12:44:42.282Z,15.21
2022-11-05T12:47:39.524Z,15.20
2022-11-05T12:50:24.392Z,15.19
2022-11-05T12:53:23.250Z,15.16
2022-11-05T12:55:52.710Z,15.14
2022-11-05T12:58:37.438Z,15.14
2022-11-05T13:01:09.618Z,15.11
2022-11-05T13:03:54.831Z,15.11
2022-11-05T13:06:30.544Z,15.10
2022-11-05T13:09:09.400Z,15.08
2022-11-05T13:12:08.694Z,15.09
2022-11-05T13:14:59.862Z,15.10
2022-11-05T13:17:41.535Z,15.12
2022-11-05T13:20:29.835Z,15.10
2022-11-05T13:23:15.077Z,15.10
2022-11-05T13:25:51.319Z,15.09
2022-11-05T13:28:54.531Z,15.08
2022-11-05T13:31:27.669Z,15.08
2022-11-05T13:33:57.185Z,15.06
2022-11-05T13:37:03.684Z,15.05
2022-11-05T13:39:51.066Z,15.05
2022-11-05T13:42:44.167Z,15.00
2022-11-05T13:45:25.697Z,14.98
2022-11-05T13:48:50.050Z,14.96
2022-11-05T13:51:49.763Z,14.93
2022-11-05T13:54:57.502Z,14.92
2022-11-05T13:57:51.785Z,14.88
2022-11-05T14:00:24.933Z,14.83
2022-11-05T14:03:05.711Z,14.81
2022-11-05T14:05:38.035Z,14.79
2022-11-05T14:08:19.148Z,14.77
2022-11-05T14:11:07.094Z,14.75
2022-11-05T14:13:39.241Z,14.72
2022-11-05T14:16:20.332Z,14.70
2022-11-05T14:18:55.952Z,14.67
2022-11-05T14:21:31.217Z,14.64
2022-11-05T14:24:27.047Z,14.60
2022-11-05T14:27:06.031Z,14.58
2022-11-05T14:29:41.683Z,14.55
2022-11-05T14:32:21.215Z,14.53
2022-11-05T14:35:19.103Z,14.50
2022-11-05T14:37:55.713Z,14.47
2022-11-05T14:40:41.515Z,14.44
2022-11-05T14:43:20.737Z,14.42
2022-11-05T14:46:01.673Z,14.38
2022-11-05T14:48:49.439Z,14.35
2022-11-05T14:51:36.910Z,14.33
2022-11-05T14:54:25.095Z,14.29
2022-11-05T14:56:58.871Z,14.25
2022-11-05T14:59:33.963Z,14.20
2022-11-05T15:02:11.685Z,14.17
2022-11-05T15:04:42.024Z,14.12
2022-11-05T15:07:14.979Z,14.10
2022-11-05T15:10:08.923Z,14.05
2022-11-05T15:12:46.489Z,14.01
2022-11-05T15:15:21.977Z,13.96
2022-11-05T15:18:00.403Z,13.91
2022-11-05T15:20:44.262Z,13.86
2022-11-05T15:23:20.355Z,13.83
2022-11-05T15:26:22.357Z,13.80
2022-11-05T15:28:52.726Z,13.80
2022-11-05T15:31:36.610Z,13.78
2022-11-05T15:34:32.712Z,13.77
2022-11-05T15:37:05.878Z,13.77
2022-11-05T15:39:44.692Z,13.73
2022-11-05T15:42:22.286Z,13.72
2022-11-05T15:44:54.748Z,13.71
2022-11-05T15:47:26.118Z,13.67
2022-11-05T15:49:57.563Z,13.64
2022-11-05T15:52:35.871Z,13.62
2022-11-05T15:55:20.146Z,13.60
2022-11-05T15:57:58.417Z,13.57
2022-11-05T16:00:29.772Z,13.56
2022-11-05T16:03:02.617Z,13.55
2022-11-05T16:05:37.701Z,13.50
2022-11-05T16:08:05.412Z,13.51
2022-11-05T16:10:37.681Z,13.50
2022-11-05T16:13:42.270Z,13.49
2022-11-05T16:16:21.259Z,13.50
2022-11-05T16:18:49.000Z,13.53
2022-11-05T16:21:21.691Z,13.57
2022-11-05T16:23:58.837Z,13.60
2022-11-05T16:29:18.339Z,13.73
2022-11-05T16:31:51.864Z,13.76
2022-11-05T16:34:29.973Z,13.82
2022-11-05T16:36:58.932Z,13.83
2022-11-05T16:39:27.333Z,13.83
2022-11-05T16:41:54.696Z,13.84
2022-11-05T16:44:22.457Z,13.82
2022-11-05T16:46:50.388Z,13.80
2022-11-05T16:49:19.964Z,13.76
2022-11-05T16:51:47.420Z,13.73
2022-11-05T16:54:14.974Z,13.68
2022-11-05T16:56:43.345Z,13.64
2022-11-05T16:59:13.035Z,13.60
2022-11-05T17:01:42.497Z,13.55
2022-11-05T17:04:12.981Z,13.50
2022-11-05T17:06:40.437Z,13.45
2022-11-05T17:09:07.890Z,13.42
2022-11-05T17:11:35.779Z,13.36
2022-11-05T17:14:03.484Z,13.33
2022-11-05T17:16:31.796Z,13.30
2022-11-05T17:18:59.586Z,13.28
2022-11-05T17:21:28.293Z,13.25
2022-11-05T17:23:55.766Z,13.22
2022-11-05T17:26:23.571Z,13.19
2022-11-05T17:28:51.213Z,13.18
2022-11-05T17:31:19.146Z,13.13
2022-11-05T17:33:46.764Z,13.12
2022-11-05T17:36:15.629Z,13.08
2022-11-05T17:38:43.170Z,13.02
2022-11-05T17:41:16.829Z,13.01
2022-11-05T17:43:44.842Z,12.98
2022-11-05T17:46:15.766Z,12.96
2022-11-05T17:48:44.299Z,12.93
2022-11-05T17:51:15.279Z,12.89
2022-11-05T17:53:44.180Z,12.89
2022-11-05T17:56:14.023Z,12.86
2022-11-05T17:58:42.264Z,12.85
2022-11-05T18:01:27.241Z,12.83
2022-11-05T18:03:55.547Z,12.81
2022-11-05T18:06:23.376Z,12.80
2022-11-05T18:08:51.159Z,12.82
2022-11-05T18:11:18.836Z,12.84
2022-11-05T18:13:46.630Z,12.89
2022-11-05T18:16:14.303Z,12.96
2022-11-05T18:18:42.034Z,13.01
2022-11-05T18:21:09.610Z,13.07
2022-11-05T18:23:37.287Z,13.09
2022-11-05T18:26:11.584Z,13.12
2022-11-05T18:28:39.587Z,13.13
2022-11-05T18:31:18.335Z,13.13
2022-11-05T18:33:49.407Z,13.11
2022-11-05T18:36:23.445Z,13.08
2022-11-05T18:38:51.435Z,13.06
2022-11-05T18:41:19.846Z,13.02
2022-11-05T18:43:47.660Z,12.98
2022-11-05T18:46:29.677Z,12.95
2022-11-05T18:48:45.168Z,12.93
2022-11-05T18:51:15.467Z,12.90
2022-11-05T18:53:43.359Z,12.87
2022-11-05T18:56:14.538Z,12.83
2022-11-05T18:58:42.831Z,12.80
2022-11-05T19:01:21.562Z,12.78
2022-11-05T19:03:54.137Z,12.76
2022-11-05T19:06:21.491Z,12.72
2022-11-05T19:08:49.125Z,12.71
2022-11-05T19:11:20.579Z,12.69
2022-11-05T19:13:48.903Z,12.69
2022-11-05T19:16:20.452Z,12.67
2022-11-05T19:18:49.097Z,12.66
2022-11-05T19:21:21.243Z,12.64
2022-11-05T19:23:49.164Z,12.66
2022-11-05T19:26:28.189Z,12.63
2022-11-05T19:28:52.424Z,12.63
2022-11-05T19:31:23.161Z,12.65
2022-11-05T19:33:51.509Z,12.67
2022-11-05T19:36:22.156Z,12.68
2022-11-05T19:38:57.197Z,12.71
2022-11-05T19:41:26.008Z,12.74
2022-11-05T19:43:54.815Z,12.81
2022-11-05T19:46:24.367Z,12.91
2022-11-05T19:48:52.342Z,13.00
2022-11-05T19:51:24.577Z,13.08
2022-11-05T19:53:54.576Z,13.13
2022-11-05T19:56:26.459Z,13.20
2022-11-05T19:58:54.212Z,13.25
2022-11-05T20:01:23.437Z,13.29
2022-11-05T20:03:51.729Z,13.31
2022-11-05T20:06:28.166Z,13.31
2022-11-05T20:11:32.136Z,13.31
2022-11-05T20:13:59.865Z,13.29
2022-11-05T20:16:35.609Z,13.29
2022-11-05T20:19:06.058Z,13.29
2022-11-05T20:21:34.579Z,13.28
2022-11-05T20:24:02.236Z,13.27
2022-11-05T20:26:30.466Z,13.26
2022-11-05T20:28:58.510Z,13.22
2022-11-05T20:31:25.922Z,13.20
2022-11-05T20:33:54.069Z,13.18
2022-11-05T20:36:24.272Z,13.15
2022-11-05T20:38:57.477Z,13.14
2022-11-05T20:41:26.395Z,13.11
2022-11-05T20:43:54.272Z,13.09
2022-11-05T20:46:22.305Z,13.06
2022-11-05T20:48:50.193Z,13.02
2022-11-05T20:51:22.385Z,12.99
2022-11-05T20:53:56.181Z,12.95
2022-11-05T20:56:28.856Z,12.92
2022-11-05T20:58:58.646Z,12.86
2022-11-05T21:01:29.537Z,12.82
2022-11-05T21:03:59.056Z,12.80
2022-11-05T21:06:26.602Z,12.81
2022-11-05T21:08:54.850Z,12.82
2022-11-05T21:11:23.138Z,12.86
2022-11-05T21:13:50.520Z,12.88
2022-11-05T21:16:19.831Z,12.93
2022-11-05T21:18:47.713Z,12.98
2022-11-05T21:21:18.688Z,13.04
2022-11-05T21:23:46.663Z,13.12
2022-11-05T21:26:16.331Z,13.18
2022-11-05T21:28:43.968Z,13.22
2022-11-05T21:31:12.011Z,13.26
2022-11-05T21:33:39.873Z,13.28
2022-11-05T21:36:11.161Z,13.30
2022-11-05T21:38:39.610Z,13.30
2022-11-05T21:41:09.501Z,13.31
2022-11-05T21:43:41.188Z,13.31
2022-11-05T21:46:10.744Z,13.31
2022-11-05T21:48:38.522Z,13.29
2022-11-05T21:51:24.539Z,13.27
2022-11-05T21:54:10.125Z,13.23
2022-11-05T21:56:56.191Z,13.22
2022-11-05T21:59:43.462Z,13.18
2022-11-05T22:02:15.185Z,13.16
2022-11-05T22:04:47.293Z,13.14
2022-11-05T22:07:19.461Z,13.13
2022-11-05T22:09:47.525Z,13.11
2022-11-05T22:12:15.075Z,13.08
2022-11-05T22:14:42.598Z,13.07
2022-11-05T22:17:10.410Z,13.03
2022-11-05T22:19:38.180Z,13.02
2022-11-05T22:22:06.608Z,13.00
2022-11-05T22:24:35.401Z,12.99
2022-11-05T22:27:10.393Z,12.95
2022-11-05T22:29:38.396Z,12.92
2022-11-05T22:32:06.628Z,12.88
2022-11-05T22:34:34.114Z,12.89
2022-11-05T22:37:01.748Z,12.89
2022-11-05T22:39:29.512Z,12.88
2022-11-05T22:41:58.056Z,12.92
2022-11-05T22:44:27.235Z,12.98
2022-11-05T22:46:55.124Z,13.04
2022-11-05T22:49:23.248Z,13.09
2022-11-05T22:51:50.989Z,13.12
2022-11-05T22:54:18.803Z,13.14
2022-11-05T22:56:46.387Z,13.18
2022-11-05T22:59:15.255Z,13.22
2022-11-05T23:01:44.690Z,13.23
2022-11-05T23:04:13.655Z,13.24
2022-11-05T23:06:59.878Z,13.22
2022-11-05T23:09:53.216Z,13.17
2022-11-05T23:12:34.885Z,13.11
2022-11-05T23:15:06.810Z,13.04
2022-11-05T23:17:53.193Z,13.01
2022-11-05T23:20:41.325Z,12.97
2022-11-05T23:23:31.207Z,12.93
2022-11-05T23:26:02.127Z,12.86
2022-11-05T23:28:29.517Z,12.79
2022-11-05T23:31:15.638Z,12.74
2022-11-05T23:33:43.047Z,12.69
2022-11-05T23:36:31.397Z,12.67
2022-11-05T23:38:59.162Z,12.63
2022-11-05T23:41:45.118Z,12.57
2022-11-05T23:44:31.155Z,12.55
2022-11-05T23:47:17.279Z,12.52
2022-11-05T23:49:44.587Z,12.49
2022-11-05T23:52:11.944Z,12.46
2022-11-05T23:54:39.640Z,12.44
2022-11-05T23:57:07.022Z,12.37
2022-11-05T23:59:34.487Z,12.34
